OIFS  Shahrekord  Airport

Shahrekord, Iran

Add Bookmark
ICAO OIFS
IATA CQD
Type Airport
Status Operational
Latitude
32° 17' 49" N
32.297199
Longitude
50° 50' 31" E
50.842201
Local (DST + 5) UTC (GMT + 4)
May 27, 2015 10:08 May 27, 2015 17:38
Sunrise-Sunset Local UTC
Begin Civil Twilight 05:33 01:03
Sunrise 06:00 01:30
Sunset 08:06 15:36
End Civil Twilight 08:34 16:04
VFR
VFR
MVFR
MVFR
IFR
VFR
LIFR
VFR
Unknown
Unavailable

Current Weather

METAR Observed VFR
OIFS 271700Z 27008KT CAVOK 15/M00 Q1021 Wed, May 27, 2015 @ 17:00 UTC
(38 Minutes ago)
Visual Flight Rules
Wind Visibility Conditions
270° at 8 knots (15 kph) 10 km or more
  • No significant weather
Temperatures Readings Precipitation
Current Temp
15°C
59°F
Dewpoint
0°C
32°F
Humidity 36%
Altimeter 30.15" Hg
Sea Level Pressure 1,021 mb
Field Elevation
2,078 m
6,818 ft
None Recorded
-
-

CheckWX.com is intended as a tool to help pilots better visualize weather data. It is not intended as a substitute for an official weather briefing obtained from a Flight Service Station. CheckWX.com does not meet the FAA requirements for an official pre-flight weather briefing. Therefore, it's important that pilots still call and obtain an official FSS pre-flight weather briefing.

© 2007-2015 CheckWX.com
17:38:00 UTC